Time;durP1;ratioP1;P1;durP2;ratioP2;P2;SDS_P1;SDS_P2;PMS_P1;PMS_P2;Temp;Humidity;BMP_temperature;BMP_pressure;BME280_temperature;BME280_humidity;BME280_pressure;Samples;Min_cycle;Max_cycle;Signal;HPM_P1;HPM_P2
2021/11/30 00:01:15;;;;;;;;;15.50;15.50;;;;;3.27;84.60;101077.44;5013370;28;45327;-74
2021/11/30 00:03:41;;;;;;;;;26.00;18.00;;;;;3.26;85.56;101075.69;5013339;28;45473;-71
2021/11/30 00:06:09;;;;;;;;;13.50;12.25;;;;;3.25;86.08;101068.78;5011420;28;45269;-71
2021/11/30 00:08:36;;;;;;;;;20.75;16.00;;;;;3.26;85.32;101067.91;5012746;28;45514;-69
2021/11/30 00:11:04;;;;;;;;;18.25;15.00;;;;;3.25;85.50;101053.16;5013033;28;46922;-71
2021/11/30 00:13:31;;;;;;;;;16.25;15.75;;;;;3.34;85.26;101070.47;5018907;28;45363;-70
2021/11/30 00:15:57;;;;;;;;;23.00;17.50;;;;;3.30;85.96;101056.63;5020078;28;45269;-64
2021/11/30 00:18:29;;;;;;;;;18.00;16.50;;;;;3.44;85.40;101069.56;5022048;28;45551;-71
2021/11/30 00:20:55;;;;;;;;;16.00;13.25;;;;;3.49;85.96;101064.38;5019516;28;46969;-71
2021/11/30 00:23:20;;;;;;;;;18.00;17.00;;;;;3.54;85.70;101062.63;5019279;28;45380;-68
2021/11/30 00:25:46;;;;;;;;;16.25;12.00;;;;;3.63;85.07;101064.31;5019423;28;45232;-71
2021/11/30 00:28:12;;;;;;;;;20.00;16.00;;;;;3.69;85.01;101066.88;5018095;28;45588;-70
2021/11/30 00:30:38;;;;;;;;;14.75;12.00;;;;;3.75;85.21;101060.81;5019274;28;45235;-71
2021/11/30 00:33:04;;;;;;;;;21.25;17.25;;;;;3.78;85.20;101053.00;5019534;27;45452;-70
2021/11/30 00:35:31;;;;;;;;;16.50;14.75;;;;;3.86;84.80;101061.63;5021518;28;45375;-68
2021/11/30 00:37:57;;;;;;;;;18.50;15.00;;;;;3.90;85.30;101060.75;5020035;28;45266;-71
2021/11/30 00:40:23;;;;;;;;;20.00;18.00;;;;;3.84;85.10;101047.75;5020346;28;46021;-71
2021/11/30 00:42:48;;;;;;;;;16.25;12.50;;;;;3.92;84.89;101053.78;5019863;28;45428;-71
2021/11/30 00:45:17;;;;;;;;;16.00;14.25;;;;;3.92;84.39;101048.56;5019621;28;45447;-69
2021/11/30 00:47:51;;;;;;;;;17.25;16.00;;;;;3.93;85.06;101047.72;5019975;28;45578;-70
2021/11/30 00:50:18;;;;;;;;;17.75;16.25;;;;;3.92;85.34;101048.56;5019057;28;45574;-71
2021/11/30 00:52:44;;;;;;;;;15.50;13.75;;;;;3.86;84.86;101033.00;5019388;28;45438;-71
2021/11/30 00:55:10;;;;;;;;;19.25;17.75;;;;;3.94;84.40;101045.97;5019072;28;45336;-72
2021/11/30 00:57:39;;;;;;;;;18.00;17.75;;;;;3.95;84.62;101038.16;5019385;28;45362;-69
2021/11/30 01:00:08;;;;;;;;;20.00;17.00;;;;;3.97;84.79;101030.34;5021233;27;46687;-68
2021/11/30 01:02:34;;;;;;;;;19.00;16.75;;;;;4.08;84.63;101038.06;5019602;28;45451;-70
2021/11/30 01:04:59;;;;;;;;;21.25;15.00;;;;;4.07;85.32;101031.13;5020090;28;45336;-66
2021/11/30 01:07:25;;;;;;;;;14.25;12.50;;;;;4.08;84.88;101027.66;5019255;28;45311;-69
2021/11/30 01:09:50;;;;;;;;;15.00;13.00;;;;;4.17;85.12;101039.78;5018502;28;46024;-67
2021/11/30 01:12:16;;;;;;;;;21.50;17.50;;;;;4.18;84.63;101041.50;5018150;28;45372;-70
2021/11/30 01:14:41;;;;;;;;;20.25;17.50;;;;;4.18;84.82;101029.34;5018284;28;45467;-66
2021/11/30 01:17:06;;;;;;;;;19.75;16.50;;;;;4.19;85.20;101031.06;5018657;28;45347;-67
2021/11/30 01:19:32;;;;;;;;;18.75;16.50;;;;;4.18;84.96;101031.94;5018319;28;45443;-69
2021/11/30 01:21:57;;;;;;;;;18.75;18.25;;;;;4.18;84.68;101029.34;5018275;28;45300;-70
2021/11/30 01:24:23;;;;;;;;;17.50;12.25;;;;;4.24;84.73;101028.44;5015916;28;45355;-69
2021/11/30 01:26:48;;;;;;;;;18.00;16.25;;;;;4.25;84.78;101027.56;5014953;28;45443;-67
2021/11/30 01:29:13;;;;;;;;;18.00;15.00;;;;;4.26;85.03;101015.44;5014781;28;46287;-71
2021/11/30 01:31:39;;;;;;;;;17.25;15.00;;;;;4.17;84.75;101000.72;5015377;28;45269;-69
2021/11/30 01:34:04;;;;;;;;;18.25;16.00;;;;;4.30;84.82;101023.19;5013248;28;45428;-68
2021/11/30 01:36:30;;;;;;;;;20.00;16.00;;;;;4.30;84.61;101009.31;5015002;28;45311;-69
2021/11/30 01:38:59;;;;;;;;;13.50;13.00;;;;;4.36;84.54;101011.88;5015333;28;46171;-70
2021/11/30 01:41:25;;;;;;;;;14.75;14.00;;;;;4.42;85.01;101009.22;5013649;27;45314;-68
2021/11/30 01:43:52;;;;;;;;;19.50;17.75;;;;;4.44;84.57;101014.41;5015905;28;45265;-71
2021/11/30 01:51:29;;;;;;;;;14.25;13.75;;;;;4.51;84.66;101006.53;5017247;28;45417;-64
2021/11/30 01:53:56;;;;;;;;;16.25;13.00;;;;;4.53;84.67;101001.31;5014669;28;45225;-66
2021/11/30 01:56:23;;;;;;;;;17.50;14.00;;;;;4.56;84.66;101011.69;5016821;28;45648;-65
2021/11/30 01:58:50;;;;;;;;;27.50;22.50;;;;;4.58;85.27;100991.72;5014948;28;46241;-66
2021/11/30 02:01:17;;;;;;;;;16.25;16.00;;;;;4.59;84.64;100995.19;5014451;27;45466;-70
2021/11/30 02:03:43;;;;;;;;;19.50;16.75;;;;;4.64;84.62;100998.63;5014317;28;45450;-71
2021/11/30 02:06:08;;;;;;;;;20.75;19.00;;;;;4.68;84.90;100995.13;5014359;28;45621;-69
2021/11/30 02:08:34;;;;;;;;;12.00;8.25;;;;;4.68;84.54;100988.13;5014332;28;45886;-68
2021/11/30 02:10:59;;;;;;;;;15.50;13.00;;;;;4.73;84.88;100987.22;5014932;28;45289;-65
2021/11/30 02:13:25;;;;;;;;;14.00;14.00;;;;;4.74;84.92;100978.53;5014591;28;45365;-69
2021/11/30 02:15:54;;;;;;;;;14.00;14.00;;;;;4.78;85.24;100983.72;5014530;28;45539;-70
2021/11/30 02:18:23;;;;;;;;;14.25;11.25;;;;;4.79;84.68;100975.03;5014473;28;45319;-70
2021/11/30 02:20:54;;;;;;;;;18.75;14.25;;;;;4.86;84.18;100988.00;5014344;28;45375;-69
2021/11/30 02:26:05;;;;;;;;;15.75;13.25;;;;;4.83;84.11;100965.44;5015005;28;45303;-72
2021/11/30 02:28:30;;;;;;;;;16.00;15.00;;;;;4.83;83.68;100955.03;5014505;28;47428;-65
2021/11/30 02:30:55;;;;;;;;;14.75;14.50;;;;;4.82;83.94;100950.69;5014915;28;45326;-70
2021/11/30 02:33:21;;;;;;;;;16.00;13.00;;;;;4.79;83.92;100956.78;5014511;28;45440;-69
2021/11/30 02:35:46;;;;;;;;;18.75;14.00;;;;;4.75;83.70;100960.28;5014864;28;45387;-70
2021/11/30 02:38:12;;;;;;;;;15.50;14.25;;;;;4.63;83.94;100953.44;5014444;28;46251;-66
2021/11/30 02:40:37;;;;;;;;;14.25;14.25;;;;;4.61;83.78;100951.75;5014073;28;45364;-70
2021/11/30 02:43:04;;;;;;;;;15.75;15.00;;;;;4.46;84.12;100931.91;5014616;27;45372;-65
2021/11/30 02:45:30;;;;;;;;;16.75;14.25;;;;;4.41;84.34;100931.97;5014753;28;45537;-69
2021/11/30 02:47:56;;;;;;;;;17.00;13.50;;;;;4.51;84.81;100944.03;5015201;28;45323;-66
2021/11/30 02:50:22;;;;;;;;;18.25;13.25;;;;;4.52;84.58;100955.28;5014815;28;45220;-70
2021/11/30 02:52:47;;;;;;;;;15.50;14.00;;;;;4.51;85.07;100938.81;5013102;28;45251;-68
2021/11/30 02:55:13;;;;;;;;;17.75;14.00;;;;;4.52;85.16;100948.34;5014997;28;45343;-71
2021/11/30 02:57:39;;;;;;;;;14.50;12.75;;;;;4.56;84.93;100951.78;5015851;28;46554;-72
2021/11/30 03:00:06;;;;;;;;;14.75;13.00;;;;;4.58;84.83;100957.84;5016018;28;45454;-63
2021/11/30 03:02:32;;;;;;;;;16.75;14.00;;;;;4.60;84.95;100950.03;5017229;28;45362;-70
2021/11/30 03:05:01;;;;;;;;;16.00;13.00;;;;;4.61;85.00;100957.81;5014689;27;45282;-71
2021/11/30 03:07:37;;;;;;;;;15.00;12.75;;;;;4.61;84.62;100959.56;5016504;28;46399;-71
2021/11/30 03:10:23;;;;;;;;;14.50;14.50;;;;;4.65;84.89;100959.50;5017153;28;45548;-70
2021/11/30 03:12:50;;;;;;;;;17.75;15.25;;;;;4.69;84.70;100970.78;5013873;28;45415;-70
2021/11/30 03:15:20;;;;;;;;;19.25;15.75;;;;;4.71;84.93;100950.78;5013649;28;45267;-68
2021/11/30 03:17:46;;;;;;;;;14.00;12.50;;;;;4.73;84.64;100954.22;5013469;28;46342;-69
2021/11/30 03:20:12;;;;;;;;;20.00;16.50;;;;;4.76;84.36;100959.41;5016636;28;45233;-68
2021/11/30 03:22:38;;;;;;;;;19.50;15.00;;;;;4.81;84.46;100962.00;5015207;28;45240;-70
2021/11/30 03:25:06;;;;;;;;;19.75;17.75;;;;;4.86;84.91;100954.97;5013677;27;45504;-71
2021/11/30 03:27:31;;;;;;;;;13.75;13.75;;;;;4.89;84.51;100954.06;5013838;28;46104;-69
2021/11/30 03:29:57;;;;;;;;;17.25;15.75;;;;;4.88;83.54;100973.19;5013806;28;45442;-68
2021/11/30 03:35:08;;;;;;;;;17.50;14.25;;;;;4.85;83.93;100962.81;5015657;28;45431;-68
2021/11/30 03:37:34;;;;;;;;;18.25;14.25;;;;;4.88;83.77;100974.06;5015013;28;46135;-69
2021/11/30 03:39:59;;;;;;;;;17.50;14.00;;;;;4.90;83.95;100972.31;5013720;28;45257;-68
2021/11/30 03:42:25;;;;;;;;;19.75;15.25;;;;;4.89;84.19;100972.31;5013363;28;45290;-69
2021/11/30 03:44:52;;;;;;;;;15.25;14.50;;;;;4.93;83.30;100981.84;5013452;28;45307;-67
2021/11/30 03:47:18;;;;;;;;;14.25;13.50;;;;;4.94;84.25;100975.75;5011386;27;46404;-70
2021/11/30 03:49:43;;;;;;;;;14.50;13.25;;;;;4.95;84.22;100980.06;5012844;28;45302;-68
2021/11/30 03:52:09;;;;;;;;;14.75;12.75;;;;;4.95;84.45;100965.31;5012650;28;45519;-68
2021/11/30 03:54:35;;;;;;;;;17.00;11.50;;;;;4.99;84.55;100981.78;5013524;28;45357;-70
2021/11/30 03:57:01;;;;;;;;;17.00;11.50;;;;;4.99;84.50;100986.97;5012753;28;45527;-64
2021/11/30 03:59:26;;;;;;;;;18.25;15.00;;;;;4.95;85.26;100970.53;5013152;28;45781;-70
2021/11/30 04:01:52;;;;;;;;;16.00;15.00;;;;;4.99;85.69;100975.72;5013547;28;45294;-66
2021/11/30 04:04:20;;;;;;;;;19.50;17.25;;;;;5.03;86.51;100977.41;5013617;28;45533;-70
2021/11/30 04:06:50;;;;;;;;;20.00;18.00;;;;;5.03;86.32;100978.25;5013280;28;47213;-69
2021/11/30 04:09:16;;;;;;;;;10.50;7.75;;;;;4.95;86.77;100985.28;5012666;28;45218;-71
2021/11/30 04:11:42;;;;;;;;;21.00;17.75;;;;;4.94;87.20;100981.84;5014651;28;45312;-65
2021/11/30 04:14:08;;;;;;;;;14.25;14.00;;;;;4.95;87.63;100986.16;5014413;28;45484;-66
2021/11/30 04:16:34;;;;;;;;;16.75;16.25;;;;;4.92;87.82;100967.06;5014054;28;47016;-72
2021/11/30 04:19:00;;;;;;;;;13.25;11.00;;;;;4.93;87.82;100967.06;5013255;28;45336;-70
2021/11/30 04:21:25;;;;;;;;;16.00;14.00;;;;;4.88;88.16;100957.56;5012476;28;45253;-71
2021/11/30 04:23:51;;;;;;;;;20.00;17.50;;;;;4.93;88.84;100969.69;5012789;28;45332;-71
2021/11/30 04:26:17;;;;;;;;;16.75;16.50;;;;;4.92;88.68;100969.69;5012252;28;45988;-70
2021/11/30 04:28:44;;;;;;;;;19.25;17.75;;;;;4.84;88.12;100961.97;5012235;28;45252;-69
2021/11/30 04:31:10;;;;;;;;;14.00;13.25;;;;;4.82;88.37;100951.53;5013095;28;45375;-67
2021/11/30 04:33:35;;;;;;;;;16.75;14.50;;;;;4.79;89.31;100948.97;5012962;28;45569;-71
2021/11/30 04:36:01;;;;;;;;;18.75;14.50;;;;;4.81;88.92;100939.38;5012317;28;45378;-65
2021/11/30 04:38:26;;;;;;;;;19.25;16.75;;;;;4.82;89.74;100954.13;5012503;28;45523;-67
2021/11/30 04:40:52;;;;;;;;;17.50;15.50;;;;;4.79;89.56;100956.78;5012817;28;45380;-68
2021/11/30 04:43:17;;;;;;;;;17.75;15.50;;;;;4.76;89.52;100951.59;5013119;28;45317;-69
2021/11/30 04:45:58;;;;;;;;;18.25;13.75;;;;;4.74;90.14;100947.25;5015677;28;45354;-68
2021/11/30 04:48:24;;;;;;;;;21.50;18.00;;;;;4.73;90.93;100954.22;5018935;27;45630;-69
2021/11/30 04:50:53;;;;;;;;;18.75;14.50;;;;;4.73;90.58;100950.75;5020166;28;45408;-68
2021/11/30 04:53:24;;;;;;;;;18.00;15.50;;;;;4.70;90.48;100953.38;5013198;28;45633;-69
2021/11/30 04:55:51;;;;;;;;;17.25;16.00;;;;;4.55;90.76;100933.56;5012526;28;47093;-69
2021/11/30 04:58:16;;;;;;;;;18.50;15.00;;;;;4.60;90.59;100943.06;5013298;28;45495;-69
2021/11/30 05:00:42;;;;;;;;;18.00;15.50;;;;;4.64;91.06;100963.00;5015185;28;45254;-67
2021/11/30 05:03:09;;;;;;;;;17.25;16.75;;;;;4.66;91.10;100952.56;5015877;28;45481;-69
2021/11/30 05:05:35;;;;;;;;;20.75;16.50;;;;;4.64;91.10;100951.72;5015015;28;46462;-69
2021/11/30 05:08:01;;;;;;;;;16.25;14.00;;;;;4.57;91.36;100935.25;5014874;28;45403;-70
2021/11/30 05:10:27;;;;;;;;;17.50;17.50;;;;;4.60;91.94;100950.88;5014947;28;45184;-70
2021/11/30 05:12:52;;;;;;;;;18.00;15.25;;;;;4.60;91.62;100945.66;5015004;28;45274;-68
2021/11/30 05:15:17;;;;;;;;;21.50;18.25;;;;;4.61;92.18;100947.38;5014405;28;45343;-71
2021/11/30 05:17:43;;;;;;;;;17.00;14.75;;;;;4.63;92.18;100957.81;5015186;28;45392;-67
2021/11/30 05:20:09;;;;;;;;;14.50;14.50;;;;;4.61;92.23;100952.59;5015556;28;45438;-67
2021/11/30 05:22:35;;;;;;;;;17.50;16.00;;;;;4.62;92.41;100946.50;5015434;28;45602;-69
2021/11/30 05:25:01;;;;;;;;;14.00;14.00;;;;;4.64;92.41;100952.56;5015729;28;46587;-73
2021/11/30 05:27:28;;;;;;;;;15.75;13.50;;;;;4.66;92.88;100936.94;5015756;27;45424;-66
2021/11/30 05:29:53;;;;;;;;;20.25;18.75;;;;;4.72;92.51;100939.47;5015192;28;45318;-67
2021/11/30 05:32:19;;;;;;;;;17.50;14.25;;;;;4.56;93.12;100891.00;5015871;28;45263;-68
2021/11/30 05:34:45;;;;;;;;;16.00;13.75;;;;;4.78;92.38;100936.81;5015637;28;46334;-68
2021/11/30 05:37:11;;;;;;;;;17.75;16.50;;;;;4.79;92.37;100938.53;5016421;28;45218;-69
2021/11/30 05:39:37;;;;;;;;;16.00;14.75;;;;;4.82;92.99;100927.22;5015662;28;45421;-71
2021/11/30 05:42:02;;;;;;;;;15.25;12.50;;;;;4.83;92.53;100929.78;5015189;28;45392;-69
2021/11/30 05:44:28;;;;;;;;;10.25;10.00;;;;;4.86;92.55;100925.44;5014736;28;46242;-68
2021/11/30 05:46:53;;;;;;;;;15.00;14.00;;;;;4.92;92.69;100928.84;5014779;28;45407;-71
2021/11/30 05:49:19;;;;;;;;;17.25;14.25;;;;;4.96;92.78;100930.53;5014941;28;45305;-71
2021/11/30 05:51:44;;;;;;;;;18.75;13.25;;;;;5.01;92.43;100942.66;5015140;28;45553;-70
2021/11/30 05:54:09;;;;;;;;;20.00;16.25;;;;;5.01;92.97;100937.44;5015185;28;45393;-70
2021/11/30 05:56:35;;;;;;;;;15.50;13.75;;;;;5.00;92.56;100925.28;5015073;28;45266;-70
2021/11/30 05:59:01;;;;;;;;;21.00;14.75;;;;;5.09;92.27;100941.69;5016603;28;45316;-65
2021/11/30 06:01:31;;;;;;;;;15.25;14.25;;;;;5.10;92.62;100938.19;5019935;28;45274;-66
2021/11/30 06:03:58;;;;;;;;;14.75;13.25;;;;;5.10;92.18;100930.38;5014041;28;46476;-64
2021/11/30 06:06:34;;;;;;;;;15.00;13.00;;;;;5.15;92.52;100929.44;5014271;28;45420;-65
2021/11/30 06:09:02;;;;;;;;;20.00;15.00;;;;;5.18;92.53;100934.63;5014044;28;45398;-66
2021/11/30 06:11:28;;;;;;;;;14.50;13.75;;;;;5.21;92.53;100929.38;5014134;28;45418;-65
2021/11/30 06:13:53;;;;;;;;;16.25;13.25;;;;;5.24;92.22;100924.13;5014523;27;45915;-66
2021/11/30 06:16:19;;;;;;;;;21.00;14.00;;;;;5.28;92.35;100936.22;5015136;28;45265;-65
2021/11/30 06:18:45;;;;;;;;;14.50;13.00;;;;;5.30;92.66;100934.50;5014778;28;45229;-64
2021/11/30 06:21:12;;;;;;;;;14.75;13.75;;;;;5.33;92.67;100931.84;5013987;28;45343;-65
2021/11/30 06:23:40;;;;;;;;;12.75;9.50;;;;;5.36;92.38;100931.81;5014969;28;46580;-67
2021/11/30 06:26:08;;;;;;;;;15.75;14.50;;;;;5.38;92.58;100919.59;5013136;27;45454;-67
2021/11/30 06:28:33;;;;;;;;;18.25;13.50;;;;;5.39;92.26;100917.84;5013881;28;45289;-69
2021/11/30 06:30:59;;;;;;;;;20.75;18.75;;;;;5.44;91.98;100923.03;5014588;28;45255;-72
2021/11/30 06:33:24;;;;;;;;;11.00;9.75;;;;;5.48;92.64;100916.88;5015372;28;46171;-69
2021/11/30 06:35:49;;;;;;;;;13.75;12.00;;;;;5.46;91.61;100923.88;5016722;28;45246;-67
2021/11/30 06:38:15;;;;;;;;;15.25;12.50;;;;;5.50;92.19;100930.75;5016033;28;45400;-68
2021/11/30 06:40:40;;;;;;;;;11.50;11.00;;;;;5.50;91.76;100926.38;5017990;28;45216;-70
2021/11/30 06:43:06;;;;;;;;;15.00;12.75;;;;;5.53;91.34;100935.94;5017859;28;45300;-70
2021/11/30 06:45:32;;;;;;;;;17.25;13.75;;;;;5.53;91.98;100935.94;5016216;28;45435;-70
2021/11/30 06:47:59;;;;;;;;;13.25;12.00;;;;;5.46;91.74;100914.28;5014330;28;45188;-71
2021/11/30 06:50:24;;;;;;;;;11.75;11.25;;;;;5.55;91.77;100914.16;5013058;28;45479;-72
2021/11/30 06:52:51;;;;;;;;;15.00;13.50;;;;;5.56;92.32;100908.03;5014568;28;46472;-72
2021/11/30 06:55:17;;;;;;;;;18.00;15.00;;;;;5.53;91.97;100900.25;5014113;28;45443;-69
2021/11/30 06:57:42;;;;;;;;;14.00;12.75;;;;;5.60;91.41;100906.25;5013932;28;45335;-73
2021/11/30 07:00:11;;;;;;;;;17.25;14.00;;;;;5.63;91.19;100932.31;5014084;28;45649;-74
2021/11/30 07:02:37;;;;;;;;;14.50;11.75;;;;;5.63;91.58;100919.25;5013725;28;46298;-69
2021/11/30 07:05:42;;;;;;;;;15.75;13.50;;;;;5.66;91.22;100932.28;5013489;28;45299;-70
2021/11/30 07:08:19;;;;;;;;;15.25;13.00;;;;;5.69;91.57;100918.31;5015603;28;45414;-71
2021/11/30 07:10:53;;;;;;;;;18.75;15.25;;;;;5.64;91.93;100913.16;5017117;28;45509;-70
2021/11/30 07:13:31;;;;;;;;;17.75;12.00;;;;;5.73;91.70;100921.75;5012986;28;46600;-70
2021/11/30 07:16:00;;;;;;;;;21.50;14.75;;;;;5.73;91.45;100919.13;5013468;28;45406;-71
2021/11/30 07:18:27;;;;;;;;;16.00;14.75;;;;;5.74;91.31;100926.94;5013784;28;45349;-66
2021/11/30 07:20:54;;;;;;;;;24.00;21.25;;;;;5.75;91.74;100931.25;5013847;28;45209;-68
2021/11/30 07:23:20;;;;;;;;;17.50;14.75;;;;;5.67;92.07;100920.06;5014557;28;45345;-72
2021/11/30 07:25:51;;;;;;;;;17.75;15.00;;;;;5.79;91.89;100934.69;5015240;28;45399;-74
2021/11/30 07:28:16;;;;;;;;;15.25;14.00;;;;;5.81;91.44;100930.31;5013957;28;45232;-71
2021/11/30 07:30:54;;;;;;;;;15.00;13.00;;;;;5.56;91.07;100889.78;5012482;28;45244;-71
2021/11/30 07:33:19;;;;;;;;;16.00;15.25;;;;;5.83;90.85;100934.66;5013935;28;45358;-72
2021/11/30 07:35:45;;;;;;;;;17.25;13.50;;;;;5.66;91.56;100902.69;5014145;28;45380;-71
2021/11/30 07:38:10;;;;;;;;;18.25;16.25;;;;;5.83;91.35;100923.34;5014074;28;45275;-67
2021/11/30 07:40:35;;;;;;;;;17.50;14.50;;;;;5.94;91.59;100942.31;5014708;28;45317;-69
2021/11/30 07:43:01;;;;;;;;;18.00;15.50;;;;;5.98;90.56;100928.31;5013042;28;45347;-66
2021/11/30 07:45:26;;;;;;;;;17.00;15.00;;;;;6.00;91.09;100936.16;5012977;28;45485;-69
2021/11/30 07:47:52;;;;;;;;;16.25;14.75;;;;;6.03;91.77;100941.34;5013208;28;45399;-72
2021/11/30 07:50:18;;;;;;;;;17.75;14.00;;;;;6.02;91.48;100939.63;5014251;28;45433;-69
2021/11/30 07:52:44;;;;;;;;;18.00;17.00;;;;;6.02;92.68;100934.41;5014369;28;46039;-68
2021/11/30 07:55:13;;;;;;;;;17.75;14.00;;;;;6.01;92.85;100932.69;5014696;28;45253;-70
2021/11/30 07:57:39;;;;;;;;;18.50;16.50;;;;;6.01;92.90;100937.03;5012612;28;45472;-70
2021/11/30 08:00:08;;;;;;;;;18.25;17.00;;;;;6.03;93.07;100937.84;5014570;28;45413;-70
2021/11/30 08:02:34;;;;;;;;;19.75;16.00;;;;;5.88;92.55;100913.69;5016267;28;46133;-71
2021/11/30 08:04:59;;;;;;;;;17.00;15.00;;;;;6.07;92.87;100943.03;5015405;28;45152;-73
2021/11/30 08:07:25;;;;;;;;;15.75;15.00;;;;;6.06;92.24;100936.06;5013840;28;45277;-70
2021/11/30 08:09:50;;;;;;;;;27.75;25.25;;;;;6.12;91.80;100956.00;5013169;28;45534;-69
2021/11/30 08:12:17;;;;;;;;;18.50;16.50;;;;;6.09;91.74;100956.03;5011761;28;46226;-71
2021/11/30 08:14:43;;;;;;;;;22.75;20.75;;;;;6.03;91.48;100950.91;5013185;28;45193;-70
2021/11/30 08:17:13;;;;;;;;;22.50;18.00;;;;;6.08;91.18;100959.53;5012735;28;45350;-71
2021/11/30 08:19:40;;;;;;;;;22.50;18.00;;;;;6.07;91.56;100953.47;5012949;28;45460;-69
2021/11/30 08:22:06;;;;;;;;;12.75;9.25;;;;;6.09;90.88;100962.16;5012529;28;45363;-70
2021/11/30 08:24:31;;;;;;;;;27.00;18.00;;;;;6.06;91.00;100948.25;5012448;28;45168;-67
2021/11/30 08:26:57;;;;;;;;;26.00;22.75;;;;;6.05;91.54;100951.75;5012587;28;45876;-68
2021/11/30 08:29:22;;;;;;;;;21.75;19.50;;;;;6.12;90.73;100959.47;5013099;28;45258;-69
2021/11/30 08:31:47;;;;;;;;;18.75;18.00;;;;;6.14;90.70;100954.22;5011728;28;46170;-69
2021/11/30 08:34:13;;;;;;;;;18.00;17.00;;;;;6.15;90.97;100953.34;5015466;28;45294;-66
2021/11/30 08:36:38;;;;;;;;;20.50;17.25;;;;;6.17;91.15;100963.78;5015629;28;45387;-68
2021/11/30 08:39:04;;;;;;;;;25.00;20.25;;;;;6.17;90.52;100961.16;5017055;28;45442;-68
2021/11/30 08:41:29;;;;;;;;;22.00;19.75;;;;;6.16;90.55;100959.44;5016668;28;45442;-67
2021/11/30 08:43:55;;;;;;;;;24.25;19.75;;;;;6.21;91.10;100968.91;5016892;28;45377;-70
2021/11/30 08:46:20;;;;;;;;;19.50;18.00;;;;;6.20;90.43;100964.56;5016074;28;45381;-71
2021/11/30 08:48:45;;;;;;;;;21.75;20.25;;;;;6.22;89.76;100962.81;5015985;28;45246;-71
2021/11/30 08:51:11;;;;;;;;;19.75;19.00;;;;;6.26;90.35;100967.09;5015458;28;46256;-70
2021/11/30 08:53:37;;;;;;;;;23.25;19.25;;;;;6.27;90.34;100958.34;5015373;28;45561;-68
2021/11/30 08:56:04;;;;;;;;;25.50;20.50;;;;;6.31;89.85;100955.69;5016641;28;45744;-68
2021/11/30 08:58:30;;;;;;;;;29.00;22.25;;;;;6.34;91.01;100950.41;5020619;28;45637;-73
2021/11/30 09:00:55;;;;;;;;;26.50;21.00;;;;;6.37;89.93;100963.47;5019130;28;45387;-70
2021/11/30 09:03:21;;;;;;;;;30.00;21.25;;;;;6.39;90.16;100953.84;5016669;28;45260;-70
2021/11/30 09:05:47;;;;;;;;;24.25;20.50;;;;;6.42;90.26;100951.19;5015530;28;45326;-72
2021/11/30 09:08:13;;;;;;;;;31.00;22.50;;;;;6.45;89.89;100943.28;5015348;28;45357;-72
2021/11/30 09:10:40;;;;;;;;;27.75;24.50;;;;;6.43;90.49;100938.06;5015049;28;45502;-71
2021/11/30 09:13:06;;;;;;;;;26.00;21.25;;;;;6.54;89.49;100947.47;5015398;28;45388;-73
2021/11/30 09:15:32;;;;;;;;;26.00;19.00;;;;;6.55;89.46;100955.31;5018834;28;45356;-72
2021/11/30 09:17:58;;;;;;;;;26.25;23.50;;;;;6.58;90.70;100955.25;5016361;28;45302;-71
2021/11/30 09:20:25;;;;;;;;;20.25;19.75;;;;;6.63;90.02;100956.94;5015944;28;45266;-66
2021/11/30 09:22:51;;;;;;;;;35.00;31.25;;;;;6.64;89.40;100948.19;5015328;28;45264;-69
2021/11/30 09:25:17;;;;;;;;;18.75;18.25;;;;;6.68;89.88;100969.00;5016542;28;45287;-67
2021/11/30 09:27:43;;;;;;;;;32.25;25.25;;;;;6.67;89.96;100959.44;5016347;28;45240;-68
2021/11/30 09:30:11;;;;;;;;;18.75;14.50;;;;;6.71;89.15;100953.25;5014770;28;46190;-65
2021/11/30 09:32:37;;;;;;;;;27.75;21.25;;;;;6.70;89.71;100955.94;5015192;28;45284;-66
2021/11/30 09:35:03;;;;;;;;;22.00;18.25;;;;;6.72;89.73;100956.75;5013346;28;45396;-65
2021/11/30 09:37:29;;;;;;;;;19.00;16.25;;;;;6.75;90.44;100964.53;5014825;28;45335;-72
2021/11/30 09:39:55;;;;;;;;;27.75;24.00;;;;;6.80;89.38;100961.81;5014293;28;45288;-69
2021/11/30 09:42:21;;;;;;;;;30.00;25.75;;;;;6.83;89.64;100959.16;4996690;28;45577;-66
2021/11/30 09:44:47;;;;;;;;;25.75;21.25;;;;;6.82;89.93;100955.69;5013441;28;45181;-71
2021/11/30 09:47:13;;;;;;;;;25.50;22.25;;;;;6.90;89.87;100960.81;4997235;28;45307;-68
2021/11/30 09:49:39;;;;;;;;;32.50;22.50;;;;;6.90;89.56;100952.06;5014736;28;45594;-71
2021/11/30 09:52:05;;;;;;;;;27.50;24.25;;;;;6.94;89.46;100956.34;5016146;28;45348;-69
2021/11/30 09:54:30;;;;;;;;;23.50;21.75;;;;;6.94;89.77;100958.97;5017356;28;45449;-69
2021/11/30 09:56:56;;;;;;;;;25.50;20.75;;;;;6.87;88.72;100939.91;5013608;28;45546;-70
2021/11/30 09:59:21;;;;;;;;;26.00;15.00;;;;;7.02;89.71;100967.53;5015071;28;45356;-68
2021/11/30 10:01:47;;;;;;;;;24.25;22.00;;;;;7.06;90.24;100955.28;5015167;28;45491;-71
2021/11/30 10:04:12;;;;;;;;;24.25;22.25;;;;;7.13;89.34;100949.03;5015744;28;45329;-70
2021/11/30 10:06:38;;;;;;;;;23.00;20.25;;;;;7.18;89.44;100948.91;5015044;28;45294;-69
2021/11/30 10:09:21;;;;;;;;;34.50;28.00;;;;;7.29;89.99;100945.19;5018197;28;47246;-71
2021/11/30 10:11:58;;;;;;;;;26.75;24.75;;;;;7.40;89.38;100949.34;5015001;27;45427;-72
2021/11/30 10:14:32;;;;;;;;;24.75;21.75;;;;;7.56;89.18;100948.13;5018164;28;45394;-70
2021/11/30 10:17:18;;;;;;;;;26.25;24.00;;;;;7.72;89.02;100945.16;5014924;28;45524;-70
2021/11/30 10:19:51;;;;;;;;;28.75;24.75;;;;;7.84;88.30;100949.28;5016478;28;46186;-70
2021/11/30 10:22:33;;;;;;;;;29.50;25.00;;;;;7.89;87.96;100953.50;5017174;27;45479;-67
2021/11/30 10:25:24;;;;;;;;;23.25;20.75;;;;;7.93;87.73;100941.19;5014416;28;45304;-66
2021/11/30 10:27:53;;;;;;;;;24.75;22.50;;;;;7.88;86.27;100945.69;5014505;28;45224;-70
2021/11/30 10:30:22;;;;;;;;;25.75;25.25;;;;;7.86;87.56;100940.47;5013909;28;46159;-69
2021/11/30 10:32:50;;;;;;;;;21.25;20.25;;;;;7.84;87.81;100939.63;5013499;28;45308;-69
2021/11/30 10:35:18;;;;;;;;;26.67;24.33;;;;;7.82;86.87;100944.06;5013725;28;45396;-68
2021/11/30 10:37:45;;;;;;;;;37.50;33.00;;;;;7.84;87.69;100949.28;5012058;28;45544;-72
2021/11/30 10:40:17;;;;;;;;;21.00;20.25;;;;;7.82;87.25;100944.06;5013419;28;45442;-67
2021/11/30 10:42:55;;;;;;;;;23.25;23.25;;;;;7.79;87.15;100954.59;5012336;28;45291;-69
2021/11/30 10:45:24;;;;;;;;;28.75;25.75;;;;;7.74;87.81;100953.84;5013577;28;45324;-70
2021/11/30 10:47:50;;;;;;;;;27.25;22.50;;;;;7.74;87.61;100949.47;5013639;28;45514;-68
2021/11/30 10:50:21;;;;;;;;;21.25;18.50;;;;;7.70;87.94;100924.25;5013418;28;45932;-66
2021/11/30 10:52:50;;;;;;;;;26.00;19.50;;;;;7.79;87.64;100927.56;5013644;28;45401;-68
2021/11/30 10:55:17;;;;;;;;;21.50;17.25;;;;;7.88;88.11;100938.66;5013656;28;45408;-69
2021/11/30 10:57:46;;;;;;;;;25.25;20.00;;;;;7.90;87.32;100928.16;5012856;28;45502;-68
2021/11/30 11:00:19;;;;;;;;;24.00;19.75;;;;;7.94;88.03;100928.94;5014127;28;45366;-71
2021/11/30 11:05:47;;;;;;;;;25.00;20.00;;;;;7.98;88.31;100928.00;5013185;28;45356;-71
2021/11/30 11:08:17;;;;;;;;;19.75;16.75;;;;;8.07;87.98;100921.66;5013155;27;45511;-72
2021/11/30 11:10:57;;;;;;;;;20.75;19.00;;;;;8.11;88.30;100920.69;5013197;28;46114;-69
2021/11/30 11:13:26;;;;;;;;;26.00;19.75;;;;;8.14;87.39;100916.25;5011935;27;45246;-68
2021/11/30 11:15:58;;;;;;;;;19.75;18.25;;;;;8.19;87.28;100919.63;5013527;27;45460;-67
2021/11/30 11:18:26;;;;;;;;;21.25;20.25;;;;;8.18;86.95;100907.41;5013507;27;45186;-70
2021/11/30 11:21:12;;;;;;;;;24.00;20.50;;;;;8.22;87.26;100905.56;5013213;28;46904;-69
2021/11/30 11:23:43;;;;;;;;;19.25;17.25;;;;;8.25;87.39;100896.78;5016237;28;45449;-70
2021/11/30 11:26:29;;;;;;;;;21.25;14.50;;;;;8.27;87.41;100903.69;5013621;28;45321;-68
2021/11/30 11:28:57;;;;;;;;;15.00;15.00;;;;;8.27;87.32;100895.81;5013831;28;45319;-67
2021/11/30 11:31:25;;;;;;;;;18.00;15.75;;;;;8.29;87.18;100896.63;5011599;28;47360;-73